Time;durP1;ratioP1;P1;durP2;ratioP2;P2;SDS_P1;SDS_P2;PMS_P1;PMS_P2;Temp;Humidity;BMP_temperature;BMP_pressure;BME280_temperature;BME280_humidity;BME280_pressure;Samples;Min_cycle;Max_cycle;Signal;HPM_P1;HPM_P2
2022/11/07 00:02:04;;;;;;;12.07;6.53;;;10.60;99.90;;;;;;4991202;28;20599;-85
2022/11/07 00:04:30;;;;;;;10.38;5.32;;;10.60;99.90;;;;;;4991969;28;20042;-85
2022/11/07 00:06:56;;;;;;;12.60;5.75;;;10.60;99.90;;;;;;4993676;28;20454;-85
2022/11/07 00:09:22;;;;;;;13.80;6.05;;;11.60;99.90;;;;;;5007006;28;20058;-85
2022/11/07 00:11:48;;;;;;;13.48;5.82;;;10.60;99.90;;;;;;5001725;28;20034;-85
2022/11/07 00:14:15;;;;;;;12.30;5.72;;;10.70;99.90;;;;;;4967381;28;20038;-85
2022/11/07 00:16:42;;;;;;;13.27;6.05;;;10.70;99.90;;;;;;4972224;28;20069;-85
2022/11/07 00:19:08;;;;;;;13.65;5.47;;;10.70;99.90;;;;;;4991090;28;20042;-85
2022/11/07 00:21:34;;;;;;;12.27;5.55;;;10.70;99.90;;;;;;5008928;28;20033;-86
2022/11/07 00:23:59;;;;;;;13.02;5.75;;;10.70;99.90;;;;;;4990450;28;20038;-86
2022/11/07 00:26:25;;;;;;;12.48;5.38;;;10.70;99.90;;;;;;4992277;28;20400;-84
2022/11/07 00:28:51;;;;;;;14.63;5.57;;;10.70;99.90;;;;;;4985569;28;20045;-85
2022/11/07 00:31:17;;;;;;;11.88;5.40;;;10.80;99.90;;;;;;4991187;28;20046;-85
2022/11/07 00:33:43;;;;;;;14.68;5.82;;;10.80;99.90;;;;;;5002327;28;20400;-85
2022/11/07 00:36:21;;;;;;;13.40;5.47;;;10.80;99.90;;;;;;5005975;28;20073;-85
2022/11/07 00:38:46;;;;;;;14.52;5.90;;;10.80;99.90;;;;;;4974596;28;20422;-86
2022/11/07 00:41:12;;;;;;;12.77;5.70;;;10.80;99.90;;;;;;4972987;28;20038;-86
2022/11/07 00:43:38;;;;;;;11.60;5.28;;;10.80;99.90;;;;;;4990429;28;20442;-86
2022/11/07 00:46:05;;;;;;;13.50;5.63;;;10.80;99.90;;;;;;4989478;28;20092;-86
2022/11/07 00:48:31;;;;;;;13.10;5.40;;;10.80;99.90;;;;;;4990377;28;20053;-87
2022/11/07 00:51:04;;;;;;;13.60;5.32;;;10.90;99.90;;;;;;5009585;28;20038;-86
2022/11/07 00:53:29;;;;;;;10.82;4.82;;;10.90;99.90;;;;;;5005859;28;20046;-86
2022/11/07 00:56:00;;;;;;;11.82;5.63;;;10.90;99.90;;;;;;4974617;28;20053;-86
2022/11/07 00:58:26;;;;;;;15.40;5.30;;;11.10;99.90;;;;;;5007840;28;20081;-87
2022/11/07 01:00:51;;;;;;;16.33;5.05;;;11.00;99.90;;;;;;4992576;28;20518;-85
2022/11/07 01:06:03;;;;;;;11.23;5.05;;;11.60;99.90;;;;;;5004582;28;20042;-85
2022/11/07 01:08:29;;;;;;;13.30;5.05;;;11.00;99.90;;;;;;4980287;28;20081;-86
2022/11/07 01:10:55;;;;;;;12.23;5.03;;;11.00;99.90;;;;;;4973441;28;20037;-86
2022/11/07 01:13:22;;;;;;;16.10;5.20;;;10.90;99.90;;;;;;4989226;28;20038;-86
2022/11/07 01:15:48;;;;;;;13.00;4.70;;;11.00;99.90;;;;;;4974203;28;20573;-86
2022/11/07 01:18:13;;;;;;;14.48;5.22;;;10.90;99.90;;;;;;5007575;28;20109;-87
2022/11/07 01:20:40;;;;;;;13.02;4.65;;;10.90;99.90;;;;;;4970799;28;20112;-86
2022/11/07 01:23:07;;;;;;;12.70;4.57;;;11.10;99.90;;;;;;4970719;28;20243;-86
2022/11/07 01:25:36;;;;;;;14.63;4.80;;;11.00;99.90;;;;;;5004823;28;20039;-87
2022/11/07 01:28:01;;;;;;;15.02;4.82;;;11.00;99.90;;;;;;4976906;28;20455;-86
2022/11/07 01:30:27;;;;;;;13.05;4.90;;;11.00;99.90;;;;;;4993718;28;20121;-86
2022/11/07 01:32:53;;;;;;;12.70;4.55;;;11.10;99.90;;;;;;4974912;28;20034;-85
2022/11/07 01:35:18;;;;;;;13.35;4.65;;;11.10;99.90;;;;;;4985121;28;20128;-86
2022/11/07 01:37:44;;;;;;;13.45;4.82;;;11.10;99.90;;;;;;4980396;28;20077;-86
2022/11/07 01:40:10;;;;;;;13.70;5.10;;;11.10;99.90;;;;;;4957626;28;20054;-87
2022/11/07 01:42:36;;;;;;;11.73;4.45;;;11.10;99.90;;;;;;4974420;28;20046;-87
2022/11/07 01:45:03;;;;;;;14.48;4.55;;;11.30;99.90;;;;;;4990759;28;20096;-86
2022/11/07 01:47:35;;;;;;;11.57;4.70;;;11.10;99.90;;;;;;4991000;28;20046;-86
2022/11/07 01:50:04;;;;;;;12.20;4.73;;;11.10;99.90;;;;;;4989620;28;20046;-87
2022/11/07 01:52:34;;;;;;;12.25;4.60;;;11.10;99.90;;;;;;4988675;28;20122;-86
2022/11/07 01:55:08;;;;;;;10.85;4.18;;;11.10;99.90;;;;;;4990774;28;20129;-85
2022/11/07 01:57:44;;;;;;;14.80;4.93;;;11.10;99.90;;;;;;4990702;28;20534;-87
2022/11/07 02:00:13;;;;;;;11.75;4.40;;;11.10;99.90;;;;;;4985725;28;20038;-87
2022/11/07 02:02:40;;;;;;;13.13;4.13;;;11.10;99.90;;;;;;4991098;28;20045;-86
2022/11/07 02:05:07;;;;;;;11.45;4.22;;;11.10;99.90;;;;;;4994990;28;20029;-86
2022/11/07 02:07:33;;;;;;;14.07;4.68;;;11.10;99.90;;;;;;4997737;28;20068;-87
2022/11/07 02:10:00;;;;;;;13.73;4.80;;;11.10;99.90;;;;;;5006125;28;20112;-87
2022/11/07 02:12:27;;;;;;;13.77;4.43;;;11.20;99.90;;;;;;5003816;28;20049;-85
2022/11/07 02:14:53;;;;;;;13.60;4.70;;;11.20;99.90;;;;;;4976598;28;20053;-87
2022/11/07 02:17:19;;;;;;;13.38;4.15;;;11.20;99.90;;;;;;4971382;28;20074;-86
2022/11/07 02:19:53;;;;;;;12.18;4.28;;;11.20;99.90;;;;;;4985639;28;20076;-86
2022/11/07 02:22:38;;;;;;;14.05;4.07;;;11.20;99.90;;;;;;5005379;28;20125;-86
2022/11/07 02:25:11;;;;;;;14.38;4.93;;;11.10;99.90;;;;;;4987518;28;20053;-86
2022/11/07 02:27:38;;;;;;;14.50;4.13;;;11.10;99.90;;;;;;5007208;28;20415;-87
2022/11/07 02:30:16;;;;;;;14.73;4.35;;;11.10;99.90;;;;;;4990632;28;20049;-86
2022/11/07 02:32:42;;;;;;;12.43;3.85;;;11.10;99.90;;;;;;4990099;28;20574;-85
2022/11/07 02:35:30;;;;;;;11.57;3.90;;;11.10;99.90;;;;;;4991984;28;20224;-85
2022/11/07 02:37:56;;;;;;;11.05;3.90;;;11.10;99.90;;;;;;4996580;28;20058;-86
2022/11/07 02:40:22;;;;;;;14.25;4.18;;;11.10;99.90;;;;;;4988673;28;20107;-86
2022/11/07 02:42:48;;;;;;;16.27;4.43;;;11.10;99.90;;;;;;5011721;28;20046;-86
2022/11/07 02:45:28;;;;;;;9.60;3.63;;;11.10;99.90;;;;;;5006898;28;20037;-87
2022/11/07 02:47:54;;;;;;;13.52;3.80;;;11.10;99.90;;;;;;4991079;28;20108;-87
2022/11/07 02:50:20;;;;;;;11.82;3.20;;;11.10;99.90;;;;;;4987676;28;20042;-87
2022/11/07 02:52:46;;;;;;;13.10;4.40;;;11.10;99.90;;;;;;4987961;28;20077;-86
2022/11/07 02:55:12;;;;;;;10.93;3.53;;;11.30;99.90;;;;;;4989348;28;20046;-86
2022/11/07 02:57:38;;;;;;;14.95;4.03;;;11.10;99.90;;;;;;4984973;28;20498;-86
2022/11/07 03:00:05;;;;;;;11.85;4.38;;;11.10;99.90;;;;;;4990725;28;20118;-86
2022/11/07 03:02:31;;;;;;;13.02;3.63;;;11.10;99.90;;;;;;4982016;28;20045;-86
2022/11/07 03:04:57;;;;;;;13.48;3.90;;;11.10;99.90;;;;;;4990563;28;20045;-86
2022/11/07 03:07:23;;;;;;;12.98;3.80;;;11.10;99.90;;;;;;4992877;28;20056;-86
2022/11/07 03:09:49;;;;;;;10.93;3.47;;;11.30;99.90;;;;;;4990004;28;20487;-87
2022/11/07 03:12:15;;;;;;;10.80;3.55;;;11.10;99.90;;;;;;4957405;28;20104;-87
2022/11/07 03:14:41;;;;;;;10.90;3.42;;;11.10;99.90;;;;;;4990385;28;20129;-86
2022/11/07 03:17:07;;;;;;;13.30;3.60;;;11.20;99.90;;;;;;4987785;28;20546;-86
2022/11/07 03:19:32;;;;;;;11.63;3.47;;;11.10;99.90;;;;;;4990511;28;20037;-86
2022/11/07 03:21:58;;;;;;;10.93;3.15;;;11.10;99.90;;;;;;4968103;28;20153;-86
2022/11/07 03:24:24;;;;;;;15.20;3.40;;;11.10;99.90;;;;;;4987418;28;20037;-86
2022/11/07 03:26:49;;;;;;;13.32;3.50;;;11.00;99.90;;;;;;5010716;28;20054;-86
2022/11/07 03:29:15;;;;;;;12.45;3.55;;;11.30;99.90;;;;;;4957981;28;20518;-85
2022/11/07 03:31:41;;;;;;;13.90;3.50;;;9.70;99.90;;;;;;5006574;28;20034;-85
2022/11/07 03:34:06;;;;;;;11.35;3.67;;;11.20;99.90;;;;;;4991165;28;20380;-85
2022/11/07 03:36:33;;;;;;;13.93;3.80;;;11.00;99.90;;;;;;4963190;28;20049;-85
2022/11/07 03:38:59;;;;;;;11.85;3.95;;;11.00;99.90;;;;;;4983031;28;20042;-85
2022/11/07 03:41:25;;;;;;;14.55;3.80;;;11.00;99.90;;;;;;4989042;28;20041;-86
2022/11/07 03:43:50;;;;;;;13.20;3.80;;;11.00;99.90;;;;;;4974712;28;20073;-85
2022/11/07 03:46:16;;;;;;;11.98;4.35;;;11.00;99.90;;;;;;4991151;28;20419;-85
2022/11/07 03:48:42;;;;;;;15.00;3.72;;;11.10;99.90;;;;;;4977801;28;20044;-85
2022/11/07 03:51:09;;;;;;;11.45;3.67;;;11.10;99.90;;;;;;4991907;28;20461;-85
2022/11/07 03:53:35;;;;;;;11.73;3.20;;;11.10;99.90;;;;;;4981053;28;20058;-86
2022/11/07 03:56:09;;;;;;;12.95;3.83;;;11.10;99.90;;;;;;4995794;28;20056;-85
2022/11/07 03:58:35;;;;;;;11.35;3.42;;;11.10;99.90;;;;;;4992778;28;20104;-86
2022/11/07 04:01:01;;;;;;;12.10;4.25;;;11.10;99.90;;;;;;4976232;28;20487;-87
2022/11/07 04:03:27;;;;;;;14.63;3.90;;;11.20;99.90;;;;;;4973157;28;20045;-85
2022/11/07 04:05:53;;;;;;;12.43;3.40;;;11.10;99.90;;;;;;4973470;28;20041;-85
2022/11/07 04:08:18;;;;;;;12.52;3.30;;;11.10;99.90;;;;;;4986189;28;20049;-86
2022/11/07 04:10:44;;;;;;;14.35;3.85;;;11.00;99.90;;;;;;4990340;28;20034;-85
2022/11/07 04:18:38;;;;;;;12.50;3.47;;;11.00;99.90;;;;;;5009372;28;20137;-86
2022/11/07 04:21:04;;;;;;;16.67;4.20;;;11.00;99.90;;;;;;4968399;28;20124;-85
2022/11/07 04:23:30;;;;;;;14.85;3.70;;;10.90;99.90;;;;;;4975564;28;20042;-85
2022/11/07 04:28:39;;;;;;;14.90;3.83;;;10.90;99.90;;;;;;4999296;28;20402;-87
2022/11/07 04:31:05;;;;;;;13.68;3.85;;;10.90;99.90;;;;;;4992147;28;20038;-85
2022/11/07 04:33:31;;;;;;;14.95;3.63;;;10.90;99.90;;;;;;4984217;28;20451;-86
2022/11/07 04:35:56;;;;;;;15.00;4.07;;;10.90;99.90;;;;;;4993697;28;20052;-86
2022/11/07 04:38:22;;;;;;;11.98;3.55;;;10.90;99.90;;;;;;4992551;28;20053;-85
2022/11/07 04:40:55;;;;;;;13.70;3.78;;;10.90;99.90;;;;;;4960214;28;20471;-86
2022/11/07 04:43:23;;;;;;;12.93;3.88;;;10.80;99.90;;;;;;4991318;28;20395;-86
2022/11/07 04:45:48;;;;;;;12.63;3.95;;;10.80;99.90;;;;;;4985868;28;20077;-85
2022/11/07 04:48:14;;;;;;;16.60;4.78;;;10.80;99.90;;;;;;4974590;28;20073;-86
2022/11/07 04:50:41;;;;;;;14.18;4.13;;;10.90;99.90;;;;;;5007926;28;20076;-86
2022/11/07 04:53:10;;;;;;;14.20;4.00;;;11.10;99.90;;;;;;4987203;28;20038;-85
2022/11/07 04:55:35;;;;;;;12.27;3.67;;;10.90;99.90;;;;;;4987201;28;20598;-86
2022/11/07 04:58:01;;;;;;;11.40;3.50;;;10.90;99.90;;;;;;4980527;28;20125;-85
2022/11/07 05:00:27;;;;;;;13.80;4.05;;;10.90;99.90;;;;;;4990134;28;20056;-85
2022/11/07 05:02:52;;;;;;;15.63;4.25;;;10.90;99.90;;;;;;4975457;28;20070;-85
2022/11/07 05:05:18;;;;;;;15.20;4.20;;;10.90;99.90;;;;;;4989673;28;20030;-86
2022/11/07 05:07:44;;;;;;;14.57;4.20;;;11.00;99.90;;;;;;4993097;28;20092;-86
2022/11/07 05:10:28;;;;;;;14.30;3.85;;;11.00;99.90;;;;;;5007632;28;20056;-85
2022/11/07 05:12:55;;;;;;;15.35;4.18;;;11.00;99.90;;;;;;4983306;28;20042;-85
2022/11/07 05:15:21;;;;;;;15.68;4.13;;;11.20;99.90;;;;;;4989650;28;20406;-85
2022/11/07 05:17:47;;;;;;;13.82;4.85;;;11.00;99.90;;;;;;4972343;28;20037;-86
2022/11/07 05:20:31;;;;;;;16.17;4.13;;;11.00;99.90;;;;;;5028923;28;20049;-85
2022/11/07 05:23:17;;;;;;;13.15;4.47;;;11.00;99.90;;;;;;4993986;28;20065;-85
2022/11/07 05:25:47;;;;;;;13.00;4.40;;;10.90;99.90;;;;;;4990867;28;20077;-86
2022/11/07 05:28:15;;;;;;;12.45;3.78;;;11.00;99.90;;;;;;4989007;28;20073;-86
2022/11/07 05:30:42;;;;;;;17.33;4.18;;;10.90;99.90;;;;;;4992448;28;20041;-85
2022/11/07 05:33:09;;;;;;;14.20;3.75;;;10.90;99.90;;;;;;4991539;28;20042;-85
2022/11/07 05:35:35;;;;;;;14.82;4.13;;;10.90;99.90;;;;;;4992511;28;20088;-86
2022/11/07 05:38:02;;;;;;;15.18;4.30;;;10.80;99.90;;;;;;4988148;28;20495;-85
2022/11/07 05:40:28;;;;;;;14.05;4.15;;;10.80;99.90;;;;;;5008227;28;20092;-85
2022/11/07 05:43:06;;;;;;;11.40;3.80;;;10.80;99.90;;;;;;4965509;28;20034;-85
2022/11/07 05:45:36;;;;;;;14.05;4.22;;;10.80;99.90;;;;;;4990656;28;20084;-86
2022/11/07 05:48:07;;;;;;;16.95;5.03;;;10.80;99.90;;;;;;4989552;28;20052;-85
2022/11/07 05:50:33;;;;;;;13.50;4.63;;;10.80;99.90;;;;;;4986817;28;20120;-86
2022/11/07 05:52:59;;;;;;;15.07;5.15;;;11.20;99.90;;;;;;4971374;28;20464;-87
2022/11/07 05:55:25;;;;;;;16.50;5.18;;;10.80;99.90;;;;;;4998318;28;20101;-86
2022/11/07 05:57:51;;;;;;;14.27;5.25;;;10.80;99.90;;;;;;4987505;28;20133;-86
2022/11/07 06:00:18;;;;;;;14.00;4.70;;;10.80;99.90;;;;;;4979776;28;20128;-85
2022/11/07 06:02:44;;;;;;;15.70;5.40;;;10.80;99.90;;;;;;4987465;28;20406;-85
2022/11/07 06:05:10;;;;;;;15.70;5.22;;;10.80;99.90;;;;;;4982586;28;20045;-85
2022/11/07 06:07:38;;;;;;;13.70;5.32;;;10.80;99.90;;;;;;4974395;28;20038;-85
2022/11/07 06:10:05;;;;;;;14.18;5.28;;;10.80;99.90;;;;;;4984762;28;20070;-85
2022/11/07 06:12:31;;;;;;;19.00;5.93;;;10.80;99.90;;;;;;4978651;28;20113;-85
2022/11/07 06:14:57;;;;;;;12.52;5.25;;;10.90;99.90;;;;;;4990896;28;20080;-85
2022/11/07 06:17:23;;;;;;;15.82;6.03;;;11.00;99.90;;;;;;4972860;28;20136;-85
2022/11/07 06:19:49;;;;;;;15.40;5.90;;;10.80;99.90;;;;;;4986787;28;20519;-85
2022/11/07 06:22:14;;;;;;;17.38;5.22;;;10.80;99.90;;;;;;4949074;28;20037;-85
2022/11/07 06:24:40;;;;;;;16.90;5.75;;;10.90;99.90;;;;;;4963206;28;20038;-85
2022/11/07 06:27:06;;;;;;;16.40;6.00;;;10.80;99.90;;;;;;5000230;28;20113;-85
2022/11/07 06:29:31;;;;;;;15.85;6.03;;;10.80;99.90;;;;;;4981856;28;20430;-84
2022/11/07 06:31:57;;;;;;;14.15;5.60;;;10.80;99.90;;;;;;4984697;28;20031;-84
2022/11/07 06:34:23;;;;;;;13.27;5.38;;;10.80;99.90;;;;;;4989111;28;20042;-84
2022/11/07 06:36:53;;;;;;;17.70;5.93;;;10.80;99.90;;;;;;4991377;28;20046;-83
2022/11/07 06:39:19;;;;;;;15.27;5.65;;;10.80;99.90;;;;;;4992367;28;20038;-84
2022/11/07 06:41:45;;;;;;;17.63;6.35;;;10.80;99.90;;;;;;4985377;28;20042;-84
2022/11/07 06:44:10;;;;;;;17.60;5.88;;;10.80;99.90;;;;;;4995505;28;20116;-84
2022/11/07 06:46:36;;;;;;;17.00;5.50;;;10.80;99.90;;;;;;4973003;28;20046;-84
2022/11/07 06:49:02;;;;;;;14.35;5.45;;;10.80;99.90;;;;;;4987721;28;20038;-84
2022/11/07 06:51:27;;;;;;;14.02;5.70;;;10.80;99.90;;;;;;5004300;28;20130;-84
2022/11/07 06:53:53;;;;;;;15.90;5.20;;;10.70;99.90;;;;;;5008132;28;20048;-84
2022/11/07 06:56:19;;;;;;;17.50;6.18;;;10.90;99.90;;;;;;4995233;28;20050;-84
2022/11/07 06:58:45;;;;;;;14.82;5.30;;;10.80;99.90;;;;;;5012370;28;20042;-84
2022/11/07 07:01:15;;;;;;;15.25;4.90;;;10.70;99.90;;;;;;5005432;28;20464;-85
2022/11/07 07:03:42;;;;;;;15.07;5.30;;;10.70;99.90;;;;;;4986814;28;20046;-85
2022/11/07 07:06:11;;;;;;;17.50;5.22;;;10.70;99.90;;;;;;4988990;28;20041;-84
2022/11/07 07:08:37;;;;;;;15.98;5.55;;;10.70;99.90;;;;;;5027855;28;20522;-85
2022/11/07 07:11:05;;;;;;;11.82;4.30;;;10.70;99.90;;;;;;5014623;28;20037;-84
2022/11/07 07:13:32;;;;;;;11.32;3.95;;;10.70;99.90;;;;;;5000332;28;20042;-84
2022/11/07 07:15:57;;;;;;;14.73;4.70;;;10.70;99.90;;;;;;4987691;28;20049;-85
2022/11/07 07:18:24;;;;;;;12.23;4.55;;;10.70;99.90;;;;;;4976818;28;20129;-85
2022/11/07 07:20:51;;;;;;;14.55;4.63;;;10.70;99.90;;;;;;4980553;28;20121;-84
2022/11/07 07:23:18;;;;;;;14.75;4.68;;;10.70;99.90;;;;;;4986571;28;20041;-85
2022/11/07 07:25:44;;;;;;;16.10;4.63;;;11.00;99.90;;;;;;4998121;28;20062;-85
2022/11/07 07:28:10;;;;;;;15.40;4.90;;;10.80;99.90;;;;;;4976311;28;20042;-85
2022/11/07 07:30:36;;;;;;;15.02;5.22;;;10.80;99.90;;;;;;4989091;28;20045;-84
2022/11/07 07:33:01;;;;;;;16.65;5.32;;;10.80;99.90;;;;;;4969071;28;20034;-83
2022/11/07 07:35:27;;;;;;;16.10;5.47;;;10.80;99.90;;;;;;4970052;28;20495;-83
2022/11/07 07:37:53;;;;;;;17.60;5.97;;;10.80;99.90;;;;;;4993533;28;20044;-83
2022/11/07 07:40:19;;;;;;;15.63;6.10;;;10.80;99.90;;;;;;4986711;28;20712;-83
2022/11/07 07:42:48;;;;;;;15.68;5.90;;;11.70;99.90;;;;;;4973268;28;20034;-83
2022/11/07 07:45:14;;;;;;;14.98;5.70;;;10.90;99.90;;;;;;4990044;28;20038;-83
2022/11/07 07:47:40;;;;;;;14.20;6.25;;;10.90;99.90;;;;;;4989093;28;20057;-83
2022/11/07 07:50:09;;;;;;;17.83;6.82;;;11.00;99.90;;;;;;4974590;28;20407;-83
2022/11/07 07:52:35;;;;;;;15.98;6.38;;;10.90;99.90;;;;;;4989308;28;20269;-84
2022/11/07 07:55:01;;;;;;;17.83;7.15;;;10.90;99.90;;;;;;4991602;28;20438;-83
2022/11/07 07:57:27;;;;;;;17.20;6.72;;;11.00;99.90;;;;;;4972390;28;20057;-83
2022/11/07 07:59:52;;;;;;;15.23;6.72;;;11.00;99.90;;;;;;4971796;28;20464;-83
2022/11/07 08:02:18;;;;;;;19.35;7.25;;;11.00;99.90;;;;;;4983889;28;20543;-84
2022/11/07 08:04:44;;;;;;;19.17;8.23;;;11.10;99.90;;;;;;4975846;28;20027;-83
2022/11/07 08:07:09;;;;;;;16.63;6.88;;;11.00;99.90;;;;;;4980302;28;20052;-83
2022/11/07 08:09:36;;;;;;;18.73;6.80;;;11.00;99.90;;;;;;4968479;28;20080;-84
2022/11/07 08:12:02;;;;;;;18.35;7.32;;;11.00;99.90;;;;;;4991395;28;20042;-84
2022/11/07 08:14:28;;;;;;;19.42;7.65;;;11.00;99.90;;;;;;5003560;28;20473;-84
2022/11/07 08:16:54;;;;;;;16.60;6.90;;;11.10;99.90;;;;;;4971339;28;20132;-84
2022/11/07 08:19:20;;;;;;;22.92;8.18;;;11.10;99.90;;;;;;4988668;28;20027;-85
2022/11/07 08:21:45;;;;;;;17.33;7.07;;;11.10;99.90;;;;;;5005173;28;20546;-84
2022/11/07 08:24:11;;;;;;;19.58;7.43;;;11.10;99.90;;;;;;5010969;28;20076;-84
2022/11/07 08:26:37;;;;;;;16.38;7.20;;;11.10;99.90;;;;;;5006959;28;20464;-84
2022/11/07 08:29:03;;;;;;;22.02;7.40;;;11.10;99.90;;;;;;4990337;28;20096;-83
2022/11/07 08:31:29;;;;;;;18.02;7.32;;;11.10;99.90;;;;;;4992387;28;20046;-83
2022/11/07 08:33:58;;;;;;;17.42;7.63;;;11.20;99.90;;;;;;4968733;28;20110;-85
2022/11/07 08:36:27;;;;;;;18.05;7.05;;;11.20;99.90;;;;;;4997123;28;20124;-83
2022/11/07 08:38:53;;;;;;;21.70;7.93;;;11.20;99.90;;;;;;4996379;28;20076;-84
2022/11/07 08:41:19;;;;;;;23.17;8.13;;;11.20;99.90;;;;;;4987579;28;20068;-84
2022/11/07 08:43:45;;;;;;;17.50;7.50;;;11.20;99.90;;;;;;4960192;28;20038;-84
2022/11/07 08:46:11;;;;;;;21.35;7.55;;;11.20;99.90;;;;;;4990240;28;20049;-83
2022/11/07 08:48:38;;;;;;;19.73;7.40;;;11.20;99.90;;;;;;4991277;28;20038;-84
2022/11/07 08:51:03;;;;;;;21.02;7.78;;;11.30;99.90;;;;;;4991123;28;20038;-84
2022/11/07 08:53:30;;;;;;;17.65;7.20;;;11.30;99.90;;;;;;4976489;28;20061;-86
2022/11/07 08:56:05;;;;;;;18.92;7.22;;;11.30;99.90;;;;;;4993795;28;20219;-84
2022/11/07 08:58:30;;;;;;;20.27;6.65;;;11.30;99.90;;;;;;4992342;28;20526;-85
2022/11/07 09:00:56;;;;;;;20.35;7.53;;;11.30;99.90;;;;;;4989187;28;20038;-84
2022/11/07 09:03:22;;;;;;;20.13;6.90;;;11.30;99.90;;;;;;4964430;28;20037;-85
2022/11/07 09:05:48;;;;;;;19.35;7.47;;;11.40;99.90;;;;;;4995442;28;20129;-84
2022/11/07 09:08:13;;;;;;;18.80;6.78;;;11.30;99.90;;;;;;4974529;28;20410;-85
2022/11/07 09:10:39;;;;;;;19.75;6.65;;;11.30;99.90;;;;;;4977481;28;20034;-84
2022/11/07 09:13:05;;;;;;;16.38;6.50;;;11.40;99.90;;;;;;4992772;28;20042;-85
2022/11/07 09:15:31;;;;;;;16.27;6.13;;;11.40;99.90;;;;;;4975744;28;20752;-83
2022/11/07 09:18:04;;;;;;;18.70;6.32;;;11.40;99.90;;;;;;4993172;28;20044;-84
2022/11/07 09:20:30;;;;;;;;;;;11.50;99.90;;;;;;4978013;28;20042;-83
2022/11/07 09:22:56;;;;;;;17.63;6.07;;;11.50;99.90;;;;;;5007182;28;19918;-85
2022/11/07 09:25:22;;;;;;;19.92;6.22;;;11.50;99.90;;;;;;4973534;28;20096;-83
2022/11/07 09:27:50;;;;;;;18.83;6.43;;;11.60;99.90;;;;;;5007452;28;20049;-85
2022/11/07 09:30:17;;;;;;;19.38;6.32;;;11.60;99.90;;;;;;4971901;28;20116;-86
2022/11/07 09:32:43;;;;;;;17.40;6.47;;;11.60;99.90;;;;;;4975057;28;20103;-83
2022/11/07 09:35:08;;;;;;;16.08;5.30;;;11.60;99.90;;;;;;4988961;28;20460;-84
2022/11/07 09:37:40;;;;;;;13.57;5.32;;;11.70;99.90;;;;;;4991732;28;20045;-84
2022/11/07 09:40:32;;;;;;;15.00;5.60;;;11.70;99.90;;;;;;4991727;28;20474;-85
2022/11/07 09:43:42;;;;;;;17.77;5.50;;;11.80;99.90;;;;;;5023438;28;20618;-86
2022/11/07 09:46:32;;;;;;;18.92;5.38;;;11.80;99.90;;;;;;4968906;28;20050;-85
2022/11/07 09:49:09;;;;;;;18.70;5.78;;;11.80;99.90;;;;;;4991879;28;20073;-85
2022/11/07 09:51:38;;;;;;;17.50;6.00;;;11.90;99.90;;;;;;4990008;28;20092;-85
2022/11/07 09:54:14;;;;;;;15.63;5.53;;;11.90;99.90;;;;;;4987889;28;20128;-85
2022/11/07 09:56:42;;;;;;;15.10;4.82;;;12.00;99.90;;;;;;5002266;28;20054;-84
2022/11/07 09:59:20;;;;;;;21.42;5.20;;;12.00;99.90;;;;;;4986945;28;20208;-84
2022/11/07 10:01:45;;;;;;;14.70;4.60;;;12.00;99.90;;;;;;4990804;28;20502;-84
2022/11/07 10:04:17;;;;;;;14.02;5.10;;;12.10;99.90;;;;;;4948022;28;20041;-84
2022/11/07 10:07:05;;;;;;;14.38;4.60;;;12.10;99.90;;;;;;4984676;28;20577;-85
2022/11/07 10:09:44;;;;;;;13.60;4.57;;;12.10;99.90;;;;;;4990182;28;20403;-84
2022/11/07 10:12:19;;;;;;;16.00;4.80;;;12.10;99.90;;;;;;5007349;28;20145;-83
2022/11/07 10:15:03;;;;;;;15.57;4.68;;;12.20;99.90;;;;;;4992645;28;20044;-85
2022/11/07 10:17:41;;;;;;;16.42;4.82;;;12.20;99.90;;;;;;5005844;28;20588;-85
2022/11/07 10:20:08;;;;;;;14.48;4.63;;;;;;;;;;4992190;28;20048;-87
2022/11/07 10:23:10;;;;;;;14.90;4.72;;;12.20;99.90;;;;;;4990047;28;20491;-86
2022/11/07 10:25:45;;;;;;;15.43;4.33;;;12.20;99.90;;;;;;4990442;28;20046;-85
2022/11/07 10:28:16;;;;;;;17.88;4.40;;;12.30;99.90;;;;;;4989677;28;20049;-86
2022/11/07 10:30:47;;;;;;;15.98;4.38;;;12.30;99.90;;;;;;4989076;28;20042;-85
2022/11/07 10:33:35;;;;;;;14.45;4.38;;;12.30;99.90;;;;;;4989870;28;20096;-85
2022/11/07 10:36:12;;;;;;;19.25;4.25;;;12.40;99.90;;;;;;4994573;28;20045;-86
2022/11/07 10:38:40;;;;;;;14.13;4.53;;;12.40;99.90;;;;;;4991816;28;20315;-85
2022/11/07 10:41:27;;;;;;;14.95;4.45;;;12.40;99.90;;;;;;4990159;28;20513;-86
2022/11/07 10:44:08;;;;;;;18.80;4.25;;;12.40;99.90;;;;;;5008773;28;20057;-84
2022/11/07 10:46:43;;;;;;;15.57;4.32;;;12.50;99.90;;;;;;4990287;28;20478;-84
2022/11/07 10:49:21;;;;;;;18.27;4.50;;;12.50;99.90;;;;;;4994600;28;20051;-85
2022/11/07 10:51:47;;;;;;;17.25;4.05;;;12.70;99.90;;;;;;4986651;28;20038;-86
2022/11/07 10:54:34;;;;;;;14.35;3.60;;;12.50;99.90;;;;;;4983132;28;20124;-86
2022/11/07 10:56:59;;;;;;;15.82;3.58;;;12.60;99.90;;;;;;4998719;28;20046;-85
2022/11/07 10:59:27;;;;;;;13.65;3.67;;;12.60;99.90;;;;;;5008293;28;20138;-85
2022/11/07 11:01:55;;;;;;;17.08;4.00;;;12.50;99.90;;;;;;4970996;28;20404;-86
2022/11/07 11:04:26;;;;;;;14.32;3.65;;;12.80;99.90;;;;;;5008996;28;20034;-85
2022/11/07 11:07:04;;;;;;;19.02;4.68;;;12.80;99.90;;;;;;5007023;28;20498;-84
2022/11/07 11:09:32;;;;;;;16.50;3.78;;;12.80;99.90;;;;;;4992068;28;20113;-84
2022/11/07 11:12:03;;;;;;;11.85;3.42;;;12.80;99.90;;;;;;4999909;28;20402;-84
2022/11/07 11:14:28;;;;;;;13.82;4.00;;;12.80;99.90;;;;;;4988606;28;20121;-85
2022/11/07 11:16:55;;;;;;;16.15;4.20;;;12.90;99.90;;;;;;4967017;28;20134;-84
2022/11/07 11:19:26;;;;;;;16.25;4.25;;;12.70;99.90;;;;;;4987140;28;20034;-85
2022/11/07 11:21:56;;;;;;;16.38;4.43;;;12.70;99.90;;;;;;5014595;28;20116;-85
2022/11/07 11:24:38;;;;;;;12.18;3.53;;;12.70;99.90;;;;;;5005150;28;20524;-85
2022/11/07 11:27:18;;;;;;;17.83;4.30;;;12.70;99.90;;;;;;4978152;28;20044;-85
2022/11/07 11:30:06;;;;;;;15.00;4.30;;;12.70;99.90;;;;;;5007857;28;20129;-84
2022/11/07 11:32:49;;;;;;;14.38;3.80;;;12.80;99.90;;;;;;4996511;28;20105;-85
2022/11/07 11:35:30;;;;;;;16.60;3.80;;;12.80;99.90;;;;;;4992853;28;20038;-84
2022/11/07 11:38:03;;;;;;;19.35;4.47;;;12.80;99.90;;;;;;4992164;28;20048;-85
2022/11/07 11:40:35;;;;;;;14.98;4.43;;;12.80;99.90;;;;;;5030655;28;20030;-85
2022/11/07 11:43:15;;;;;;;14.05;3.88;;;12.90;99.90;;;;;;5008422;28;20522;-85
2022/11/07 11:46:25;;;;;;;15.45;4.43;;;12.90;99.90;;;;;;4986101;28;20044;-85
2022/11/07 11:48:55;;;;;;;13.93;3.90;;;12.90;99.90;;;;;;4999985;28;20041;-85
2022/11/07 11:51:26;;;;;;;15.75;3.75;;;13.00;99.90;;;;;;4994349;28;20530;-85
2022/11/07 11:53:52;;;;;;;18.67;4.63;;;13.00;99.90;;;;;;4995298;28;20323;-85
2022/11/07 11:56:23;;;;;;;13.65;3.60;;;13.00;99.90;;;;;;5004082;28;20750;-85
2022/11/07 11:59:08;;;;;;;14.35;3.85;;;13.00;99.90;;;;;;4986024;28;20071;-86
2022/11/07 12:02:00;;;;;;;15.30;4.00;;;13.10;99.90;;;;;;5008644;28;20498;-86
2022/11/07 12:04:37;;;;;;;15.68;4.25;;;13.10;99.90;;;;;;4985237;28;20092;-85
2022/11/07 12:07:41;;;;;;;14.82;4.28;;;13.10;99.90;;;;;;5013458;28;20128;-85
2022/11/07 12:10:28;;;;;;;17.25;3.65;;;13.10;99.90;;;;;;5003712;28;21024;-84
2022/11/07 12:13:04;;;;;;;16.63;3.88;;;13.20;99.90;;;;;;5010412;28;20152;-85
2022/11/07 12:15:45;;;;;;;13.43;4.45;;;13.20;99.90;;;;;;4990129;28;20124;-84
2022/11/07 12:18:21;;;;;;;13.77;3.50;;;13.40;99.90;;;;;;4992200;28;20554;-85
2022/11/07 12:21:32;;;;;;;15.63;4.10;;;13.40;99.90;;;;;;4991180;28;20128;-85
2022/11/07 12:24:15;;;;;;;19.83;4.05;;;13.40;99.90;;;;;;4962031;28;20086;-85
2022/11/07 12:26:58;;;;;;;14.40;3.80;;;13.40;99.90;;;;;;4986581;28;20415;-86
2022/11/07 12:29:44;;;;;;;14.10;4.75;;;13.50;99.90;;;;;;4987652;28;20064;-86
2022/11/07 12:32:27;;;;;;;15.13;4.15;;;13.50;99.90;;;;;;4981582;28;20045;-86
2022/11/07 12:35:30;;;;;;;12.40;3.30;;;13.50;99.90;;;;;;4989828;28;20160;-85
2022/11/07 12:38:24;;;;;;;10.45;3.50;;;13.50;99.90;;;;;;5005516;28;20078;-85
2022/11/07 12:40:49;;;;;;;;;;;13.60;99.90;;;;;;4989429;28;20038;-85
2022/11/07 12:43:15;;;;;;;13.70;3.55;;;13.50;99.90;;;;;;4986116;28;19918;-84
2022/11/07 12:45:49;;;;;;;14.27;3.53;;;13.60;99.90;;;;;;4986574;28;20034;-84
2022/11/07 12:48:27;;;;;;;13.85;3.63;;;13.70;99.90;;;;;;4993173;28;20080;-84
2022/11/07 12:51:02;;;;;;;12.00;3.20;;;13.70;99.90;;;;;;4991627;28;20204;-84
2022/11/07 12:53:55;;;;;;;14.48;3.80;;;13.70;99.90;;;;;;4991680;28;20042;-84
2022/11/07 12:56:26;;;;;;;14.07;3.28;;;13.80;99.90;;;;;;4989905;28;20053;-84
2022/11/07 12:58:53;;;;;;;12.48;2.92;;;13.80;99.90;;;;;;5006038;28;20104;-84
2022/11/07 13:01:32;;;;;;;14.70;3.40;;;13.90;99.90;;;;;;4973445;28;20273;-84
2022/11/07 13:04:18;;;;;;;13.80;3.20;;;13.80;99.90;;;;;;4989547;28;20042;-85